sensor_id;sensor_type;location;lat;lon;timestamp;pressure;altitude;pressure_sealevel;temperature;humidity
5883;BME280;2967;51.488;6.618;2023-01-28T00:02:24;102578.00;;;5.44;100.00
5883;BME280;2967;51.488;6.618;2023-01-28T00:07:27;102585.94;;;5.38;100.00
5883;BME280;2967;51.488;6.618;2023-01-28T00:12:30;102568.53;;;5.32;100.00
5883;BME280;2967;51.488;6.618;2023-01-28T00:17:34;102577.13;;;5.43;100.00
5883;BME280;2967;51.488;6.618;2023-01-28T00:22:37;102582.28;;;5.48;100.00
5883;BME280;2967;51.488;6.618;2023-01-28T00:27:39;102589.41;;;5.43;100.00
5883;BME280;2967;51.488;6.618;2023-01-28T00:32:43;102578.00;;;5.42;100.00
5883;BME280;2967;51.488;6.618;2023-01-28T00:37:46;102582.47;;;5.37;100.00
5883;BME280;2967;51.488;6.618;2023-01-28T00:42:49;102585.06;;;5.40;100.00
5883;BME280;2967;51.488;6.618;2023-01-28T00:47:55;102574.56;;;5.40;100.00
5883;BME280;2967;51.488;6.618;2023-01-28T00:52:58;102576.41;;;5.32;100.00
5883;BME280;2967;51.488;6.618;2023-01-28T00:58:01;102572.22;;;5.21;100.00
5883;BME280;2967;51.488;6.618;2023-01-28T01:03:05;102583.59;;;5.21;100.00
5883;BME280;2967;51.488;6.618;2023-01-28T01:08:08;102599.31;;;5.21;100.00
5883;BME280;2967;51.488;6.618;2023-01-28T01:13:10;102549.09;;;4.88;100.00
5883;BME280;2967;51.488;6.618;2023-01-28T01:18:14;102454.44;;;4.47;100.00
5883;BME280;2967;51.488;6.618;2023-01-28T01:23:17;102588.88;;;5.18;100.00
5883;BME280;2967;51.488;6.618;2023-01-28T01:28:21;102588.88;;;5.18;100.00
5883;BME280;2967;51.488;6.618;2023-01-28T01:33:27;102592.28;;;5.25;100.00
5883;BME280;2967;51.488;6.618;2023-01-28T01:38:30;102600.28;;;5.16;100.00
5883;BME280;2967;51.488;6.618;2023-01-28T01:43:47;102611.72;;;5.12;100.00
5883;BME280;2967;51.488;6.618;2023-01-28T01:48:52;102603.97;;;5.00;100.00
5883;BME280;2967;51.488;6.618;2023-01-28T01:53:57;102610.06;;;5.03;100.00
5883;BME280;2967;51.488;6.618;2023-01-28T01:59:01;102617.88;;;5.08;100.00
5883;BME280;2967;51.488;6.618;2023-01-28T02:04:10;102617.97;;;5.01;100.00
5883;BME280;2967;51.488;6.618;2023-01-28T02:09:23;102621.38;;;5.05;100.00
5883;BME280;2967;51.488;6.618;2023-01-28T02:14:28;102624.22;;;4.89;100.00
5883;BME280;2967;51.488;6.618;2023-01-28T02:19:37;102623.34;;;4.90;100.00
5883;BME280;2967;51.488;6.618;2023-01-28T02:25:06;102622.69;;;4.73;100.00
5883;BME280;2967;51.488;6.618;2023-01-28T02:30:19;102627.81;;;4.84;100.00
5883;BME280;2967;51.488;6.618;2023-01-28T02:35:28;102617.25;;;4.88;100.00
5883;BME280;2967;51.488;6.618;2023-01-28T02:40:34;102617.31;;;4.85;100.00
5883;BME280;2967;51.488;6.618;2023-01-28T02:46:10;102592.19;;;4.68;100.00
5883;BME280;2967;51.488;6.618;2023-01-28T02:51:38;102621.56;;;4.94;100.00
5883;BME280;2967;51.488;6.618;2023-01-28T02:56:48;102623.31;;;4.93;100.00
5883;BME280;2967;51.488;6.618;2023-01-28T03:01:59;102622.41;;;4.96;100.00
5883;BME280;2967;51.488;6.618;2023-01-28T03:07:06;102615.56;;;4.84;100.00
5883;BME280;2967;51.488;6.618;2023-01-28T03:12:13;102612.78;;;4.98;100.00
5883;BME280;2967;51.488;6.618;2023-01-28T03:17:42;102612.78;;;4.96;100.00
5883;BME280;2967;51.488;6.618;2023-01-28T03:23:08;102618.91;;;4.97;100.00
5883;BME280;2967;51.488;6.618;2023-01-28T03:28:30;102604.09;;;4.94;100.00
5883;BME280;2967;51.488;6.618;2023-01-28T03:33:54;102612.06;;;4.87;100.00
5883;BME280;2967;51.488;6.618;2023-01-28T03:39:18;102616.56;;;4.74;100.00
5883;BME280;2967;51.488;6.618;2023-01-28T03:44:21;102620.72;;;4.92;100.00
5883;BME280;2967;51.488;6.618;2023-01-28T03:49:45;102626.97;;;4.82;100.00
5883;BME280;2967;51.488;6.618;2023-01-28T03:54:52;102632.09;;;4.92;100.00
5883;BME280;2967;51.488;6.618;2023-01-28T03:59:55;102629.50;;;4.88;100.00
5883;BME280;2967;51.488;6.618;2023-01-28T04:04:59;102629.56;;;4.82;100.00
5883;BME280;2967;51.488;6.618;2023-01-28T04:10:09;102629.59;;;4.80;100.00
5883;BME280;2967;51.488;6.618;2023-01-28T04:15:44;102638.28;;;4.87;100.00
5883;BME280;2967;51.488;6.618;2023-01-28T04:21:09;102643.56;;;4.81;99.39
5883;BME280;2967;51.488;6.618;2023-01-28T04:26:32;102632.28;;;4.74;98.50
5883;BME280;2967;51.488;6.618;2023-01-28T04:31:55;102639.31;;;4.71;98.28
5883;BME280;2967;51.488;6.618;2023-01-28T04:37:43;102647.13;;;4.77;96.44
5883;BME280;2967;51.488;6.618;2023-01-28T04:43:19;102644.47;;;4.80;97.01
5883;BME280;2967;51.488;6.618;2023-01-28T04:48:48;102646.44;;;4.60;98.28
5883;BME280;2967;51.488;6.618;2023-01-28T04:53:52;102641.09;;;4.67;98.38
5883;BME280;2967;51.488;6.618;2023-01-28T04:59:05;102651.59;;;4.69;97.49
5883;BME280;2967;51.488;6.618;2023-01-28T05:04:08;102642.84;;;4.68;97.28
5883;BME280;2967;51.488;6.618;2023-01-28T05:09:14;102636.69;;;4.71;96.29
5883;BME280;2967;51.488;6.618;2023-01-28T05:14:17;102632.41;;;4.67;96.74
5883;BME280;2967;51.488;6.618;2023-01-28T05:19:26;102627.09;;;4.70;97.64
5883;BME280;2967;51.488;6.618;2023-01-28T05:24:31;102512.72;;;3.92;96.18
5883;BME280;2967;51.488;6.618;2023-01-28T05:29:34;102643.69;;;4.72;97.27
5883;BME280;2967;51.488;6.618;2023-01-28T05:34:36;102650.03;;;4.48;96.64
5883;BME280;2967;51.488;6.618;2023-01-28T05:39:46;102643.34;;;4.23;95.65
5883;BME280;2967;51.488;6.618;2023-01-28T05:44:49;102658.88;;;4.41;97.00
5883;BME280;2967;51.488;6.618;2023-01-28T05:50:13;102666.81;;;4.31;96.11
5883;BME280;2967;51.488;6.618;2023-01-28T05:55:20;102655.72;;;4.03;96.52
5883;BME280;2967;51.488;6.618;2023-01-28T06:00:23;102655.66;;;4.12;98.62
5883;BME280;2967;51.488;6.618;2023-01-28T06:05:26;102535.84;;;3.43;97.28
5883;BME280;2967;51.488;6.618;2023-01-28T06:10:30;102663.28;;;4.38;96.64
5883;BME280;2967;51.488;6.618;2023-01-28T06:15:33;102655.41;;;4.36;97.48
5883;BME280;2967;51.488;6.618;2023-01-28T06:20:56;102664.97;;;4.42;98.38
5883;BME280;2967;51.488;6.618;2023-01-28T06:26:01;102671.06;;;4.44;97.75
5883;BME280;2967;51.488;6.618;2023-01-28T06:31:03;102661.75;;;4.14;97.09
5883;BME280;2967;51.488;6.618;2023-01-28T06:36:07;102661.78;;;4.11;96.92
5883;BME280;2967;51.488;6.618;2023-01-28T06:41:11;102667.06;;;4.04;97.54
5883;BME280;2967;51.488;6.618;2023-01-28T06:46:14;102668.88;;;3.97;98.43
5883;BME280;2967;51.488;6.618;2023-01-28T06:51:17;102671.28;;;4.20;99.44
5883;BME280;2967;51.488;6.618;2023-01-28T06:56:21;102683.34;;;4.36;98.24
5883;BME280;2967;51.488;6.618;2023-01-28T07:01:23;102676.38;;;4.36;98.10
5883;BME280;2967;51.488;6.618;2023-01-28T07:06:26;102692.94;;;4.40;98.01
5883;BME280;2967;51.488;6.618;2023-01-28T07:11:30;102678.06;;;4.42;98.40
5883;BME280;2967;51.488;6.618;2023-01-28T07:16:33;102626.13;;;3.97;98.81
5883;BME280;2967;51.488;6.618;2023-01-28T07:21:35;102672.88;;;4.36;98.90
5883;BME280;2967;51.488;6.618;2023-01-28T07:26:39;102660.66;;;4.35;97.41
5883;BME280;2967;51.488;6.618;2023-01-28T07:31:42;102662.44;;;4.34;97.65
5883;BME280;2967;51.488;6.618;2023-01-28T07:36:44;102678.06;;;4.43;98.17
5883;BME280;2967;51.488;6.618;2023-01-28T07:41:48;102676.34;;;4.41;98.21
5883;BME280;2967;51.488;6.618;2023-01-28T07:47:06;102686.00;;;4.34;97.83
5883;BME280;2967;51.488;6.618;2023-01-28T07:52:09;102703.47;;;4.35;98.71
5883;BME280;2967;51.488;6.618;2023-01-28T07:57:13;102708.03;;;4.11;98.60
5883;BME280;2967;51.488;6.618;2023-01-28T08:02:16;102728.19;;;4.00;99.17
5883;BME280;2967;51.488;6.618;2023-01-28T08:07:18;102716.00;;;3.99;95.36
5883;BME280;2967;51.488;6.618;2023-01-28T08:12:22;102728.34;;;3.79;97.28
5883;BME280;2967;51.488;6.618;2023-01-28T08:17:26;102720.38;;;3.97;98.26
5883;BME280;2967;51.488;6.618;2023-01-28T08:22:29;102727.19;;;4.19;98.13
5883;BME280;2967;51.488;6.618;2023-01-28T08:27:33;102738.47;;;4.27;97.38
5883;BME280;2967;51.488;6.618;2023-01-28T08:32:36;102748.81;;;4.43;96.17
5883;BME280;2967;51.488;6.618;2023-01-28T08:37:39;102767.16;;;4.43;97.06
5883;BME280;2967;51.488;6.618;2023-01-28T08:42:46;102762.75;;;4.47;96.56
5883;BME280;2967;51.488;6.618;2023-01-28T08:47:51;102782.16;;;4.22;95.16
5883;BME280;2967;51.488;6.618;2023-01-28T08:52:55;102795.34;;;4.08;96.45
5883;BME280;2967;51.488;6.618;2023-01-28T08:58:01;102786.72;;;3.88;96.64
5883;BME280;2967;51.488;6.618;2023-01-28T09:03:04;102787.66;;;3.81;97.52
5883;BME280;2967;51.488;6.618;2023-01-28T09:08:09;102803.31;;;3.86;95.44
5883;BME280;2967;51.488;6.618;2023-01-28T09:13:14;102798.16;;;3.71;97.38
5883;BME280;2967;51.488;6.618;2023-01-28T09:18:17;102819.19;;;3.50;96.92
5883;BME280;2967;51.488;6.618;2023-01-28T09:23:20;102813.94;;;3.59;95.78
5883;BME280;2967;51.488;6.618;2023-01-28T09:28:24;102813.88;;;3.69;96.35
5883;BME280;2967;51.488;6.618;2023-01-28T09:33:27;102821.78;;;3.57;95.30
5883;BME280;2967;51.488;6.618;2023-01-28T09:38:30;102820.81;;;3.79;95.51
5883;BME280;2967;51.488;6.618;2023-01-28T09:43:56;102836.59;;;3.63;93.48
5883;BME280;2967;51.488;6.618;2023-01-28T09:49:06;102813.94;;;3.59;93.59
5883;BME280;2967;51.488;6.618;2023-01-28T09:54:23;102837.53;;;3.47;95.16
5883;BME280;2967;51.488;6.618;2023-01-28T09:59:29;102830.53;;;3.52;94.86
5883;BME280;2967;51.488;6.618;2023-01-28T10:04:47;102824.44;;;3.56;95.48
5883;BME280;2967;51.488;6.618;2023-01-28T10:10:01;102823.38;;;3.88;95.63
5883;BME280;2967;51.488;6.618;2023-01-28T10:15:23;102810.19;;;4.06;95.97
5883;BME280;2967;51.488;6.618;2023-01-28T10:20:31;102821.56;;;4.07;93.65
5883;BME280;2967;51.488;6.618;2023-01-28T10:25:34;102815.44;;;4.00;94.85
5883;BME280;2967;51.488;6.618;2023-01-28T10:30:41;102822.28;;;4.24;93.88
5883;BME280;2967;51.488;6.618;2023-01-28T10:35:45;102819.66;;;4.31;95.02
5883;BME280;2967;51.488;6.618;2023-01-28T10:40:49;102831.72;;;4.47;92.87
5883;BME280;2967;51.488;6.618;2023-01-28T10:45:57;102809.38;;;3.95;93.06
5883;BME280;2967;51.488;6.618;2023-01-28T10:51:03;102843.44;;;3.89;93.04
5883;BME280;2967;51.488;6.618;2023-01-28T10:56:08;102838.22;;;3.88;93.45
5883;BME280;2967;51.488;6.618;2023-01-28T11:01:13;102844.34;;;3.84;93.57
5883;BME280;2967;51.488;6.618;2023-01-28T11:06:23;102847.88;;;3.74;94.21
5883;BME280;2967;51.488;6.618;2023-01-28T11:11:27;102850.31;;;4.08;94.10
5883;BME280;2967;51.488;6.618;2023-01-28T11:16:31;102847.63;;;4.22;93.77
5883;BME280;2967;51.488;6.618;2023-01-28T11:21:34;102852.03;;;4.14;93.31
5883;BME280;2967;51.488;6.618;2023-01-28T11:26:38;102846.81;;;4.17;93.57
5883;BME280;2967;51.488;6.618;2023-01-28T11:31:46;102842.38;;;4.26;94.01
5883;BME280;2967;51.488;6.618;2023-01-28T11:36:50;102791.84;;;4.09;92.91
5883;BME280;2967;51.488;6.618;2023-01-28T11:41:53;102811.06;;;4.07;92.70
5883;BME280;2967;51.488;6.618;2023-01-28T11:47:09;102831.91;;;4.20;92.71
5883;BME280;2967;51.488;6.618;2023-01-28T11:52:23;102826.69;;;4.20;91.70
5883;BME280;2967;51.488;6.618;2023-01-28T11:57:41;102801.28;;;4.33;92.49
5883;BME280;2967;51.488;6.618;2023-01-28T12:02:52;102797.75;;;4.41;92.79
5883;BME280;2967;51.488;6.618;2023-01-28T12:08:05;102799.19;;;4.74;92.61
5883;BME280;2967;51.488;6.618;2023-01-28T12:13:20;102781.69;;;4.77;91.80
5883;BME280;2967;51.488;6.618;2023-01-28T12:18:40;102788.69;;;4.75;91.07
5883;BME280;2967;51.488;6.618;2023-01-28T12:23:57;102770.47;;;4.60;89.18
5883;BME280;2967;51.488;6.618;2023-01-28T12:29:16;102758.97;;;4.78;90.40
5883;BME280;2967;51.488;6.618;2023-01-28T12:34:33;102716.22;;;4.71;93.11
5883;BME280;2967;51.488;6.618;2023-01-28T12:39:52;102677.84;;;4.63;90.92
5883;BME280;2967;51.488;6.618;2023-01-28T12:45:03;102684.72;;;4.73;90.77
5883;BME280;2967;51.488;6.618;2023-01-28T12:50:20;102657.06;;;4.45;87.79
5883;BME280;2967;51.488;6.618;2023-01-28T12:55:35;102728.56;;;4.59;90.06
5883;BME280;2967;51.488;6.618;2023-01-28T13:00:42;102740.63;;;4.78;91.71
5883;BME280;2967;51.488;6.618;2023-01-28T13:05:50;102732.56;;;4.93;92.06
5883;BME280;2967;51.488;6.618;2023-01-28T13:10:55;102730.69;;;5.03;91.99
5883;BME280;2967;51.488;6.618;2023-01-28T13:16:00;102724.84;;;4.82;87.62
5883;BME280;2967;51.488;6.618;2023-01-28T13:21:07;102725.88;;;4.68;88.65
5883;BME280;2967;51.488;6.618;2023-01-28T13:26:36;102744.88;;;4.85;91.02
5883;BME280;2967;51.488;6.618;2023-01-28T13:31:42;102711.88;;;4.69;90.95
5883;BME280;2967;51.488;6.618;2023-01-28T13:36:47;102740.53;;;4.87;90.67
5883;BME280;2967;51.488;6.618;2023-01-28T13:41:52;102739.63;;;4.86;89.42
5883;BME280;2967;51.488;6.618;2023-01-28T13:46:56;102729.31;;;4.71;89.00
5883;BME280;2967;51.488;6.618;2023-01-28T13:52:05;102744.16;;;4.72;88.76
5883;BME280;2967;51.488;6.618;2023-01-28T13:57:31;102751.19;;;4.67;88.38
5883;BME280;2967;51.488;6.618;2023-01-28T14:08:36;102736.47;;;4.54;91.07
5883;BME280;2967;51.488;6.618;2023-01-28T14:14:14;102723.41;;;4.51;91.71
5883;BME280;2967;51.488;6.618;2023-01-28T14:19:27;102690.41;;;4.32;90.76
5883;BME280;2967;51.488;6.618;2023-01-28T14:24:33;102692.94;;;4.41;91.25
5883;BME280;2967;51.488;6.618;2023-01-28T14:29:46;102667.84;;;4.16;90.54
5883;BME280;2967;51.488;6.618;2023-01-28T14:34:51;102687.78;;;4.32;90.46
5883;BME280;2967;51.488;6.618;2023-01-28T14:39:58;102692.13;;;4.32;90.68
5883;BME280;2967;51.488;6.618;2023-01-28T14:45:13;102681.50;;;4.48;89.40
5883;BME280;2967;51.488;6.618;2023-01-28T14:50:29;102679.16;;;4.21;88.77
5883;BME280;2967;51.488;6.618;2023-01-28T14:55:43;102687.97;;;4.11;90.86
5883;BME280;2967;51.488;6.618;2023-01-28T15:00:54;102559.38;;;3.42;92.68
5883;BME280;2967;51.488;6.618;2023-01-28T15:06:02;102707.31;;;3.92;91.18
5883;BME280;2967;51.488;6.618;2023-01-28T15:11:07;102706.50;;;3.83;91.39
5883;BME280;2967;51.488;6.618;2023-01-28T15:16:15;102714.56;;;3.44;91.99
5883;BME280;2967;51.488;6.618;2023-01-28T15:21:19;102731.78;;;3.87;92.42
5883;BME280;2967;51.488;6.618;2023-01-28T15:26:26;102750.13;;;3.81;92.54
5883;BME280;2967;51.488;6.618;2023-01-28T15:31:30;102715.28;;;3.73;91.40
5883;BME280;2967;51.488;6.618;2023-01-28T15:36:34;102725.66;;;3.88;92.55
5883;BME280;2967;51.488;6.618;2023-01-28T15:41:40;102742.38;;;3.66;92.94
5883;BME280;2967;51.488;6.618;2023-01-28T15:46:47;102725.97;;;3.29;95.46
5883;BME280;2967;51.488;6.618;2023-01-28T15:51:50;102759.88;;;3.56;93.28
5883;BME280;2967;51.488;6.618;2023-01-28T15:56:54;102768.63;;;3.45;95.66
5883;BME280;2967;51.488;6.618;2023-01-28T16:02:15;102758.16;;;3.51;93.27
5883;BME280;2967;51.488;6.618;2023-01-28T16:07:18;102789.59;;;3.33;93.19
5883;BME280;2967;51.488;6.618;2023-01-28T16:12:23;102780.00;;;3.30;94.30
5883;BME280;2967;51.488;6.618;2023-01-28T16:17:29;102791.38;;;3.28;93.87
5883;BME280;2967;51.488;6.618;2023-01-28T16:22:34;102784.31;;;3.45;93.68
5883;BME280;2967;51.488;6.618;2023-01-28T16:27:38;102783.47;;;3.44;94.70
5883;BME280;2967;51.488;6.618;2023-01-28T16:32:42;102784.44;;;3.22;95.96
5883;BME280;2967;51.488;6.618;2023-01-28T16:44:35;102795.78;;;3.08;96.71
5883;BME280;2967;51.488;6.618;2023-01-28T16:49:38;102792.25;;;3.19;96.04
5883;BME280;2967;51.488;6.618;2023-01-28T16:54:42;102782.66;;;3.29;96.02
5883;BME280;2967;51.488;6.618;2023-01-28T16:59:47;102785.31;;;3.17;96.76
5883;BME280;2967;51.488;6.618;2023-01-28T17:04:49;102780.13;;;3.08;97.50
5883;BME280;2967;51.488;6.618;2023-01-28T17:09:52;102752.25;;;2.92;97.49
5883;BME280;2967;51.488;6.618;2023-01-28T17:14:56;102779.19;;;3.15;97.74
5883;BME280;2967;51.488;6.618;2023-01-28T17:19:59;102760.06;;;3.07;98.69
5883;BME280;2967;51.488;6.618;2023-01-28T17:25:02;102764.44;;;2.97;99.65
5883;BME280;2967;51.488;6.618;2023-01-28T17:30:08;102767.94;;;2.83;100.00
5883;BME280;2967;51.488;6.618;2023-01-28T17:35:10;102766.19;;;2.89;100.00
5883;BME280;2967;51.488;6.618;2023-01-28T17:40:15;102783.63;;;2.93;100.00
5883;BME280;2967;51.488;6.618;2023-01-28T17:45:19;102788.84;;;2.93;100.00
5883;BME280;2967;51.488;6.618;2023-01-28T17:50:22;102802.81;;;2.92;100.00
5883;BME280;2967;51.488;6.618;2023-01-28T17:55:25;102813.28;;;2.67;100.00
5883;BME280;2967;51.488;6.618;2023-01-28T18:00:29;102820.25;;;2.43;100.00
5883;BME280;2967;51.488;6.618;2023-01-28T18:05:33;102822.84;;;2.59;100.00
5883;BME280;2967;51.488;6.618;2023-01-28T18:10:35;102814.13;;;2.63;100.00
5883;BME280;2967;51.488;6.618;2023-01-28T18:15:39;102812.38;;;2.37;100.00
5883;BME280;2967;51.488;6.618;2023-01-28T18:20:42;102818.50;;;2.28;100.00
5883;BME280;2967;51.488;6.618;2023-01-28T18:25:45;102822.84;;;2.43;100.00
5883;BME280;2967;51.488;6.618;2023-01-28T18:30:49;102828.94;;;2.53;100.00
5883;BME280;2967;51.488;6.618;2023-01-28T18:35:51;102834.16;;;2.52;100.00
5883;BME280;2967;51.488;6.618;2023-01-28T18:40:54;102844.59;;;2.36;100.00
5883;BME280;2967;51.488;6.618;2023-01-28T18:45:58;102838.47;;;2.19;100.00
5883;BME280;2967;51.488;6.618;2023-01-28T18:51:01;102848.09;;;2.44;100.00
5883;BME280;2967;51.488;6.618;2023-01-28T18:56:05;102845.47;;;2.39;100.00
5883;BME280;2967;51.488;6.618;2023-01-28T19:01:10;102829.78;;;2.33;100.00
5883;BME280;2967;51.488;6.618;2023-01-28T19:06:13;102839.34;;;2.22;100.00
5883;BME280;2967;51.488;6.618;2023-01-28T19:11:16;102847.22;;;2.45;100.00
5883;BME280;2967;51.488;6.618;2023-01-28T19:16:20;102843.69;;;2.16;100.00
5883;BME280;2967;51.488;6.618;2023-01-28T19:21:24;102845.47;;;2.33;100.00
5883;BME280;2967;51.488;6.618;2023-01-28T19:26:28;102844.59;;;2.27;100.00
5883;BME280;2967;51.488;6.618;2023-01-28T19:31:32;102845.44;;;2.21;100.00
5883;BME280;2967;51.488;6.618;2023-01-28T19:36:35;102847.19;;;2.30;100.00
5883;BME280;2967;51.488;6.618;2023-01-28T19:41:38;102843.56;;;1.75;100.00
5883;BME280;2967;51.488;6.618;2023-01-28T19:46:42;102852.38;;;2.07;100.00
5883;BME280;2967;51.488;6.618;2023-01-28T19:51:45;102862.72;;;1.83;100.00
5883;BME280;2967;51.488;6.618;2023-01-28T19:56:48;102884.53;;;2.00;100.00
5883;BME280;2967;51.488;6.618;2023-01-28T20:01:52;102877.63;;;2.14;100.00
5883;BME280;2967;51.488;6.618;2023-01-28T20:06:55;102868.84;;;1.94;100.00
5883;BME280;2967;51.488;6.618;2023-01-28T20:11:57;102866.28;;;2.03;100.00
5883;BME280;2967;51.488;6.618;2023-01-28T20:17:01;102868.09;;;2.24;100.00
5883;BME280;2967;51.488;6.618;2023-01-28T20:22:05;102845.44;;;2.20;100.00
5883;BME280;2967;51.488;6.618;2023-01-28T20:27:11;102855.84;;;2.12;100.00
5883;BME280;2967;51.488;6.618;2023-01-28T20:32:16;102845.28;;;1.67;100.00
5883;BME280;2967;51.488;6.618;2023-01-28T20:37:21;102847.09;;;1.95;100.00
5883;BME280;2967;51.488;6.618;2023-01-28T20:42:23;102841.03;;;1.98;100.00
5883;BME280;2967;51.488;6.618;2023-01-28T20:47:27;102826.22;;;1.85;100.00
5883;BME280;2967;51.488;6.618;2023-01-28T20:52:30;102822.75;;;1.93;100.00
5883;BME280;2967;51.488;6.618;2023-01-28T20:57:33;102823.63;;;1.97;100.00
5883;BME280;2967;51.488;6.618;2023-01-28T21:02:38;102823.63;;;1.91;100.00
5883;BME280;2967;51.488;6.618;2023-01-28T21:07:43;102812.25;;;1.69;100.00
5883;BME280;2967;51.488;6.618;2023-01-28T21:12:46;102811.44;;;1.84;100.00
5883;BME280;2967;51.488;6.618;2023-01-28T21:17:50;102799.28;;;1.87;100.00
5883;BME280;2967;51.488;6.618;2023-01-28T21:22:53;102798.34;;;1.75;100.00
5883;BME280;2967;51.488;6.618;2023-01-28T21:27:55;102807.03;;;1.69;100.00
5883;BME280;2967;51.488;6.618;2023-01-28T21:32:59;102800.06;;;1.68;100.00
5883;BME280;2967;51.488;6.618;2023-01-28T21:38:02;102798.34;;;1.78;100.00
5883;BME280;2967;51.488;6.618;2023-01-28T21:43:05;102799.22;;;1.71;100.00
5883;BME280;2967;51.488;6.618;2023-01-28T21:48:09;102811.38;;;1.73;100.00
5883;BME280;2967;51.488;6.618;2023-01-28T21:53:12;102800.06;;;1.68;100.00
5883;BME280;2967;51.488;6.618;2023-01-28T21:58:15;102819.84;;;1.18;100.00
5883;BME280;2967;51.488;6.618;2023-01-28T22:03:36;102818.22;;;1.43;100.00
5883;BME280;2967;51.488;6.618;2023-01-28T22:08:39;102815.50;;;1.20;100.00
5883;BME280;2967;51.488;6.618;2023-01-28T22:13:42;102813.81;;;1.31;100.00
5883;BME280;2967;51.488;6.618;2023-01-28T22:18:46;102819.09;;;1.43;100.00
5883;BME280;2967;51.488;6.618;2023-01-28T22:23:50;102831.34;;;1.59;100.00
5883;BME280;2967;51.488;6.618;2023-01-28T22:28:53;102819.09;;;1.42;100.00
5883;BME280;2967;51.488;6.618;2023-01-28T22:33:57;102820.84;;;1.47;100.00
5883;BME280;2967;51.488;6.618;2023-01-28T22:39:00;102812.97;;;1.35;100.00
5883;BME280;2967;51.488;6.618;2023-01-28T22:44:03;102813.81;;;1.28;100.00
5883;BME280;2967;51.488;6.618;2023-01-28T22:49:08;102814.72;;;1.38;100.00
5883;BME280;2967;51.488;6.618;2023-01-28T22:54:11;102824.25;;;1.28;100.00
5883;BME280;2967;51.488;6.618;2023-01-28T22:59:15;102812.91;;;1.22;100.00
5883;BME280;2967;51.488;6.618;2023-01-28T23:04:19;102801.66;;;1.33;100.00
5883;BME280;2967;51.488;6.618;2023-01-28T23:09:21;102799.88;;;1.22;100.00
5883;BME280;2967;51.488;6.618;2023-01-28T23:14:24;102797.22;;;1.19;100.00
5883;BME280;2967;51.488;6.618;2023-01-28T23:19:46;102794.50;;;0.95;100.00
5883;BME280;2967;51.488;6.618;2023-01-28T23:25:06;102733.34;;;0.37;100.00
5883;BME280;2967;51.488;6.618;2023-01-28T23:30:10;102791.88;;;0.93;100.00
5883;BME280;2967;51.488;6.618;2023-01-28T23:35:16;102785.97;;;1.18;100.00
5883;BME280;2967;51.488;6.618;2023-01-28T23:40:19;102776.38;;;1.19;100.00
5883;BME280;2967;51.488;6.618;2023-01-28T23:45:24;102778.13;;;1.20;100.00
5883;BME280;2967;51.488;6.618;2023-01-28T23:50:28;102767.69;;;1.17;100.00
5883;BME280;2967;51.488;6.618;2023-01-28T23:55:31;102764.94;;;0.90;100.00
